Puerto Aisen, Chile
Current Conditions -  °F | °C
As of 9:00 PM on Sunday 23 Nov 2014 (Local Time) from SCBA Reporting Station
NA  
Wind Chill: 36°   Ceiling: NA
Heat Index: 45°   Visibility: 6mi
Dew Point: 30°   Wind: 23mph
Humidity: 57%   Direction: 300°WNW
Pressure: 29.62"   Gusts: NA
Location:  45.4°S, 72.7°W
Report Text: SCBA 240100Z AUTO 30020KT 9999 07/M01 Q1003
Loading
Personal Weather Stations






























Interactive Weather Map New forecast layout! Learn more

10-Day Weather Forecast

Advertisements
Track Severe Weather on mobile